Time;durP1;ratioP1;P1;durP2;ratioP2;P2;SDS_P1;SDS_P2;PMS_P1;PMS_P2;Temp;Humidity;BMP_temperature;BMP_pressure;BME280_temperature;BME280_humidity;BME280_pressure;Samples;Min_cycle;Max_cycle;Signal;HPM_P1;HPM_P2
2021/01/03 00:00:28;;;;;;;;;;;27.70;40.70;;;;;;5075276;28;19995;-55
2021/01/03 00:02:53;;;;;;;;;;;27.70;40.80;;;;;;5075147;28;19947;-50
2021/01/03 00:05:20;;;;;;;;;;;27.60;40.70;;;;;;5083454;28;19912;-48
2021/01/03 00:07:45;;;;;;;;;;;27.60;40.70;;;;;;5088087;28;19965;-51
2021/01/03 00:10:11;;;;;;;;;;;27.60;40.70;;;;;;5075471;28;19908;-49
2021/01/03 00:12:36;;;;;;;;;;;27.60;40.80;;;;;;5075050;28;20377;-50
2021/01/03 00:15:03;;;;;;;;;;;27.60;40.80;;;;;;5088573;28;19912;-53
2021/01/03 00:17:28;;;;;;;;;;;27.60;40.70;;;;;;5054933;28;20050;-50
2021/01/03 00:19:54;;;;;;;;;;;27.60;40.70;;;;;;5054929;28;20004;-57
2021/01/03 00:22:19;;;;;;;;;;;27.60;40.70;;;;;;5093325;28;19920;-57
2021/01/03 00:24:45;;;;;;;;;;;27.60;40.80;;;;;;5081567;28;19936;-49
2021/01/03 00:27:10;;;;;;;;;;;27.60;40.80;;;;;;5074619;28;19916;-65
2021/01/03 00:29:36;;;;;;;;;;;27.60;40.50;;;;;;5092849;28;20315;-52
2021/01/03 00:32:01;;;;;;;;;;;27.60;40.70;;;;;;5093125;28;20270;-52
2021/01/03 00:34:27;;;;;;;;;;;27.60;40.90;;;;;;5084691;28;19916;-50
2021/01/03 00:36:52;;;;;;;;;;;27.50;40.70;;;;;;5094860;28;19909;-51
2021/01/03 00:39:18;;;;;;;;;;;27.60;40.80;;;;;;5095115;28;19912;-58
2021/01/03 00:41:49;;;;;;;;;;;27.60;40.60;;;;;;5082645;28;19916;-49
2021/01/03 00:44:15;;;;;;;;;;;27.60;40.60;;;;;;5094681;28;20281;-55
2021/01/03 00:46:40;;;;;;;;;;;27.60;40.60;;;;;;5094844;28;19908;-60
2021/01/03 00:49:06;;;;;;;;;;;27.60;40.60;;;;;;5094840;28;19915;-48
2021/01/03 00:51:31;;;;;;;;;;;27.60;40.70;;;;;;5082308;28;20066;-51
2021/01/03 00:53:57;;;;;;;;;;;27.60;40.60;;;;;;5075907;28;19928;-49
2021/01/03 00:56:23;;;;;;;;;;;27.60;40.60;;;;;;5094061;28;20366;-49
2021/01/03 00:58:49;;;;;;;;;;;27.70;40.80;;;;;;5082856;28;20025;-53
2021/01/03 01:01:14;;;;;;;;;;;27.60;40.70;;;;;;5084161;28;20057;-49
2021/01/03 01:03:39;;;;;;;;;;;27.60;40.70;;;;;;5075217;28;19916;-52
2021/01/03 01:06:05;;;;;;;;;;;27.60;40.70;;;;;;5074527;28;19923;-51
2021/01/03 01:08:30;;;;;;;;;;;27.60;40.70;;;;;;5092874;28;20358;-54
2021/01/03 01:10:56;;;;;;;;;;;27.60;40.60;;;;;;5092024;28;19908;-62
2021/01/03 01:13:21;;;;;;;;;;;27.60;40.80;;;;;;5073978;28;20290;-63
2021/01/03 01:15:47;;;;;;;;;;;27.50;40.60;;;;;;5079733;28;20432;-50
2021/01/03 01:18:13;;;;;;;;;;;27.60;40.60;;;;;;5074090;28;19912;-48
2021/01/03 01:20:39;;;;;;;;;;;27.60;40.60;;;;;;5073296;28;20301;-50
2021/01/03 01:23:04;;;;;;;;;;;27.60;40.60;;;;;;5073979;28;19995;-51
2021/01/03 01:25:31;;;;;;;;;;;27.60;40.60;;;;;;5060322;28;19916;-52
2021/01/03 01:27:56;;;;;;;;;;;27.60;40.60;;;;;;5066487;28;20007;-63
2021/01/03 01:30:22;;;;;;;;;;;27.60;40.60;;;;;;5074480;28;19951;-58
2021/01/03 01:32:48;;;;;;;;;;;27.60;40.50;;;;;;5073442;28;19920;-56
2021/01/03 01:35:14;;;;;;;;;;;27.60;40.50;;;;;;5075078;28;19935;-54
2021/01/03 01:37:40;;;;;;;;;;;27.60;40.60;;;;;;5093704;28;19915;-59
2021/01/03 01:40:06;;;;;;;;;;;27.60;40.60;;;;;;5080065;28;19916;-53
2021/01/03 01:42:31;;;;;;;;;;;27.60;40.60;;;;;;5087881;28;20270;-52
2021/01/03 01:44:56;;;;;;;;;;;27.60;40.60;;;;;;5093531;28;19908;-47
2021/01/03 01:47:25;;;;;;;;;;;27.60;40.60;;;;;;5084743;28;19927;-57
2021/01/03 01:49:50;;;;;;;;;;;27.60;39.90;;;;;;5088960;28;19920;-58
2021/01/03 01:52:16;;;;;;;;;;;27.70;39.90;;;;;;5089003;28;19908;-60
2021/01/03 01:54:43;;;;;;;;;;;27.50;40.50;;;;;;5090303;28;19912;-63
2021/01/03 01:57:15;;;;;;;;;;;27.50;40.70;;;;;;5085346;28;19908;-64
2021/01/03 01:59:45;;;;;;;;;;;27.50;40.70;;;;;;5073734;28;19923;-64
2021/01/03 02:02:11;;;;;;;;;;;27.50;40.60;;;;;;5070772;28;19936;-64
2021/01/03 02:04:41;;;;;;;;;;;27.50;40.40;;;;;;5069540;28;19912;-64
2021/01/03 02:07:30;;;;;;;;;;;27.50;40.30;;;;;;5070015;28;19921;-64
2021/01/03 02:10:05;;;;;;;;;;;27.50;40.20;;;;;;5055095;28;20288;-64
2021/01/03 02:12:32;;;;;;;;;;;27.50;40.10;;;;;;5081435;28;20701;-64
2021/01/03 02:14:57;;;;;;;;;;;27.50;40.10;;;;;;5092257;28;19915;-65
2021/01/03 02:17:23;;;;;;;;;;;27.50;40.10;;;;;;5073653;28;19912;-64
2021/01/03 02:19:49;;;;;;;;;;;27.50;40.20;;;;;;5073242;28;20328;-66
2021/01/03 02:22:24;;;;;;;;;;;27.50;40.10;;;;;;5091798;28;20319;-64
2021/01/03 02:25:08;;;;;;;;;;;27.50;40.10;;;;;;5086483;28;19912;-64
2021/01/03 02:27:42;;;;;;;;;;;27.50;40.10;;;;;;5082503;28;19921;-64
2021/01/03 02:30:08;;;;;;;;;;;27.40;40.10;;;;;;5089497;28;20032;-65
2021/01/03 02:32:34;;;;;;;;;;;27.40;40.10;;;;;;5070550;28;20344;-66
2021/01/03 02:34:59;;;;;;;;;;;27.40;40.10;;;;;;5052981;28;20365;-66
2021/01/03 02:37:31;;;;;;;;;;;27.50;40.10;;;;;;5083083;28;19958;-65
2021/01/03 02:39:58;;;;;;;;;;;27.40;40.00;;;;;;5051783;28;19947;-66
2021/01/03 02:42:31;;;;;;;;;;;27.40;39.90;;;;;;5079209;28;19912;-66
2021/01/03 02:44:56;;;;;;;;;;;27.40;40.00;;;;;;5092886;28;19937;-66
2021/01/03 02:47:23;;;;;;;;;;;27.40;40.00;;;;;;5073015;28;19999;-65
2021/01/03 02:49:49;;;;;;;;;;;27.40;40.00;;;;;;5072888;28;20286;-66
2021/01/03 02:52:16;;;;;;;;;;;27.40;39.90;;;;;;5087591;28;19912;-65
2021/01/03 02:54:41;;;;;;;;;;;27.40;39.90;;;;;;5086211;28;19920;-65
2021/01/03 02:57:07;;;;;;;;;;;27.40;39.90;;;;;;5087321;28;19912;-66
2021/01/03 02:59:32;;;;;;;;;;;27.40;39.90;;;;;;5092747;28;19909;-65
2021/01/03 03:01:57;;;;;;;;;;;27.40;39.90;;;;;;5086917;28;19916;-66
2021/01/03 03:04:23;;;;;;;;;;;27.40;39.80;;;;;;5082894;28;19966;-66
2021/01/03 03:06:48;;;;;;;;;;;27.30;39.80;;;;;;5072612;28;19916;-66
2021/01/03 03:09:14;;;;;;;;;;;27.40;39.90;;;;;;5088228;28;20373;-65
2021/01/03 03:11:43;;;;;;;;;;;27.40;39.90;;;;;;5079837;28;19918;-66
2021/01/03 03:14:09;;;;;;;;;;;27.40;39.80;;;;;;5092645;28;19909;-66
2021/01/03 03:16:34;;;;;;;;;;;27.30;39.80;;;;;;5080361;28;19913;-66
2021/01/03 03:19:00;;;;;;;;;;;27.30;39.90;;;;;;5076333;28;20351;-65
2021/01/03 03:21:25;;;;;;;;;;;27.30;39.80;;;;;;5087353;28;19912;-65
2021/01/03 03:23:51;;;;;;;;;;;27.40;39.80;;;;;;5087732;28;19913;-66
2021/01/03 03:26:16;;;;;;;;;;;27.30;39.80;;;;;;5091798;28;19916;-66
2021/01/03 03:28:42;;;;;;;;;;;27.30;39.80;;;;;;5082666;28;20049;-65
2021/01/03 03:31:07;;;;;;;;;;;27.30;39.70;;;;;;5094696;28;19923;-65
2021/01/03 03:33:33;;;;;;;;;;;27.30;39.70;;;;;;5096425;28;20342;-66
2021/01/03 03:35:58;;;;;;;;;;;27.30;39.70;;;;;;5085218;28;19917;-65
2021/01/03 03:38:24;;;;;;;;;;;27.30;39.70;;;;;;5076031;28;19916;-66
2021/01/03 03:40:49;;;;;;;;;;;27.30;39.70;;;;;;5081983;28;19954;-66
2021/01/03 03:43:15;;;;;;;;;;;27.30;39.70;;;;;;5078686;28;20362;-67
2021/01/03 03:45:40;;;;;;;;;;;27.30;39.70;;;;;;5096091;28;19912;-67
2021/01/03 03:48:06;;;;;;;;;;;27.30;39.70;;;;;;5096061;28;20030;-67
2021/01/03 03:50:31;;;;;;;;;;;27.30;39.60;;;;;;5094021;28;19924;-67
2021/01/03 03:52:57;;;;;;;;;;;27.30;39.60;;;;;;5088038;28;19913;-67
2021/01/03 03:55:22;;;;;;;;;;;27.30;39.60;;;;;;5082666;28;19916;-67
2021/01/03 03:57:48;;;;;;;;;;;27.30;39.60;;;;;;5081765;28;20396;-68
2021/01/03 04:00:21;;;;;;;;;;;27.30;39.60;;;;;;5075740;28;19923;-67
2021/01/03 04:02:46;;;;;;;;;;;27.30;39.50;;;;;;5075612;28;19909;-67
2021/01/03 04:05:13;;;;;;;;;;;27.30;39.50;;;;;;5076157;28;19908;-67
2021/01/03 04:07:38;;;;;;;;;;;27.30;39.50;;;;;;5095423;28;19947;-68
2021/01/03 04:10:04;;;;;;;;;;;27.30;39.50;;;;;;5095480;28;19908;-66
2021/01/03 04:12:29;;;;;;;;;;;27.30;39.50;;;;;;5069384;28;19913;-67
2021/01/03 04:14:55;;;;;;;;;;;27.20;39.40;;;;;;5075329;28;19954;-67
2021/01/03 04:17:20;;;;;;;;;;;27.30;39.50;;;;;;5085166;28;19912;-68
2021/01/03 04:19:46;;;;;;;;;;;27.30;39.50;;;;;;5075230;28;19912;-67
2021/01/03 04:22:11;;;;;;;;;;;27.20;39.30;;;;;;5093025;28;20421;-67
2021/01/03 04:24:37;;;;;;;;;;;27.30;39.40;;;;;;5090142;28;19913;-67
2021/01/03 04:27:03;;;;;;;;;;;27.30;39.40;;;;;;5074766;28;20007;-66
2021/01/03 04:29:29;;;;;;;;;;;27.20;39.30;;;;;;5084535;28;19926;-67
2021/01/03 04:31:58;;;;;;;;;;;27.30;39.30;;;;;;5076053;28;19947;-67
2021/01/03 04:34:23;;;;;;;;;;;27.20;39.30;;;;;;5075013;28;19987;-67
2021/01/03 04:36:52;;;;;;;;;;;27.30;39.30;;;;;;5082375;28;20023;-67
2021/01/03 04:39:18;;;;;;;;;;;27.30;39.30;;;;;;5074540;28;20378;-67
2021/01/03 04:41:43;;;;;;;;;;;27.20;39.30;;;;;;5066486;28;19924;-68
2021/01/03 04:44:14;;;;;;;;;;;27.20;39.20;;;;;;5074712;28;19913;-67
2021/01/03 04:46:40;;;;;;;;;;;27.20;39.20;;;;;;5076403;28;20008;-69
2021/01/03 04:49:07;;;;;;;;;;;27.20;39.20;;;;;;5069969;28;19917;-67
2021/01/03 04:51:34;;;;;;;;;;;27.20;39.20;;;;;;5081883;28;19982;-67
2021/01/03 04:54:17;;;;;;;;;;;27.20;39.20;;;;;;5090235;28;19995;-67
2021/01/03 04:56:43;;;;;;;;;;;27.20;39.20;;;;;;5091338;28;19908;-67
2021/01/03 04:59:08;;;;;;;;;;;27.20;39.20;;;;;;5081528;28;19928;-67
2021/01/03 05:01:37;;;;;;;;;;;27.20;39.20;;;;;;5081728;28;19917;-67
2021/01/03 05:04:05;;;;;;;;;;;27.20;39.10;;;;;;5081228;28;20429;-67
2021/01/03 05:06:31;;;;;;;;;;;27.20;39.10;;;;;;5084759;28;19935;-68
2021/01/03 05:08:57;;;;;;;;;;;27.20;39.10;;;;;;5093227;28;20351;-67
2021/01/03 05:11:27;;;;;;;;;;;27.20;39.10;;;;;;5093855;28;20002;-67
2021/01/03 05:13:54;;;;;;;;;;;27.20;39.10;;;;;;5069653;28;19908;-67
2021/01/03 05:16:20;;;;;;;;;;;27.20;39.10;;;;;;5053937;28;19916;-67
2021/01/03 05:18:45;;;;;;;;;;;27.20;39.10;;;;;;5054152;28;19913;-68
2021/01/03 05:21:10;;;;;;;;;;;27.20;39.10;;;;;;5072623;28;20370;-67
2021/01/03 05:23:37;;;;;;;;;;;27.20;39.10;;;;;;5094005;28;19915;-68
2021/01/03 05:26:03;;;;;;;;;;;27.20;39.10;;;;;;5077334;28;20007;-67
2021/01/03 05:28:30;;;;;;;;;;;27.20;39.00;;;;;;5075520;28;20267;-68
2021/01/03 05:31:08;;;;;;;;;;;27.20;39.00;;;;;;5080783;28;20267;-67
2021/01/03 05:33:33;;;;;;;;;;;27.20;38.90;;;;;;5082160;28;20363;-68
2021/01/03 05:35:59;;;;;;;;;;;27.20;38.90;;;;;;5073426;28;19916;-67
2021/01/03 05:38:35;;;;;;;;;;;27.20;38.90;;;;;;5073695;28;19912;-67
2021/01/03 05:41:09;;;;;;;;;;;27.20;39.00;;;;;;5080580;28;20444;-67
2021/01/03 05:43:35;;;;;;;;;;;27.20;38.80;;;;;;5089457;28;19916;-68
2021/01/03 05:46:27;;;;;;;;;;;27.20;38.90;;;;;;5089383;28;20369;-68
2021/01/03 05:49:10;;;;;;;;;;;27.20;38.90;;;;;;5071979;28;20340;-67
2021/01/03 05:51:35;;;;;;;;;;;27.20;38.80;;;;;;5092476;28;20405;-67
2021/01/03 05:54:02;;;;;;;;;;;27.20;38.90;;;;;;5092400;28;19916;-67
2021/01/03 05:56:27;;;;;;;;;;;27.20;38.90;;;;;;5088631;28;20251;-67
2021/01/03 05:58:53;;;;;;;;;;;27.20;38.80;;;;;;5075515;28;19927;-67
2021/01/03 06:01:20;;;;;;;;;;;27.20;38.90;;;;;;5083270;28;19923;-67
2021/01/03 06:04:05;;;;;;;;;;;27.20;38.90;;;;;;5091744;28;19919;-67
2021/01/03 06:06:40;;;;;;;;;;;27.20;38.80;;;;;;5085628;28;19916;-67
2021/01/03 06:09:06;;;;;;;;;;;27.20;38.80;;;;;;5093185;28;20397;-67
2021/01/03 06:11:31;;;;;;;;;;;27.20;38.80;;;;;;5072759;28;19963;-67
2021/01/03 06:13:57;;;;;;;;;;;27.20;38.80;;;;;;5073319;28;19909;-66
2021/01/03 06:16:29;;;;;;;;;;;27.20;38.80;;;;;;5083156;28;20282;-67
2021/01/03 06:19:05;;;;;;;;;;;27.20;38.80;;;;;;5093122;28;19947;-67
2021/01/03 06:21:32;;;;;;;;;;;27.20;38.70;;;;;;5052814;28;19921;-67
2021/01/03 06:24:01;;;;;;;;;;;27.20;38.70;;;;;;5058404;28;20015;-68
2021/01/03 06:26:28;;;;;;;;;;;27.20;38.70;;;;;;5092355;28;19946;-67
2021/01/03 06:28:54;;;;;;;;;;;27.20;38.70;;;;;;5072407;28;19921;-67
2021/01/03 06:31:29;;;;;;;;;;;27.20;38.70;;;;;;5080632;28;20006;-68
2021/01/03 06:33:54;;;;;;;;;;;27.20;38.70;;;;;;5076209;28;19916;-67
2021/01/03 06:36:22;;;;;;;;;;;27.20;38.20;;;;;;5072660;28;20305;-67
2021/01/03 06:39:05;;;;;;;;;;;27.20;38.70;;;;;;5072940;28;19962;-67
2021/01/03 06:41:40;;;;;;;;;;;27.20;38.70;;;;;;5072832;28;19963;-69
2021/01/03 06:44:11;;;;;;;;;;;27.20;38.70;;;;;;5072916;28;19931;-68
2021/01/03 06:47:06;;;;;;;;;;;27.20;38.70;;;;;;5071720;28;19917;-68
2021/01/03 06:49:46;;;;;;;;;;;27.20;38.70;;;;;;5067583;28;19982;-67
2021/01/03 06:52:12;;;;;;;;;;;27.20;38.60;;;;;;5074524;28;20341;-67
2021/01/03 06:54:56;;;;;;;;;;;27.20;38.60;;;;;;5084126;28;19949;-68
2021/01/03 06:57:40;;;;;;;;;;;27.20;38.60;;;;;;5088195;28;19912;-68
2021/01/03 07:00:11;;;;;;;;;;;27.20;38.60;;;;;;5094179;28;19935;-67
2021/01/03 07:02:40;;;;;;;;;;;27.20;38.60;;;;;;5093149;28;20332;-67
2021/01/03 07:05:06;;;;;;;;;;;27.20;38.60;;;;;;5078637;28;19912;-67
2021/01/03 07:07:34;;;;;;;;;;;27.20;38.60;;;;;;5094381;28;19981;-67
2021/01/03 07:10:10;;;;;;;;;;;27.20;38.60;;;;;;5096905;28;19908;-67
2021/01/03 07:12:42;;;;;;;;;;;27.20;38.60;;;;;;5096490;28;20298;-67
2021/01/03 07:15:09;;;;;;;;;;;27.10;38.50;;;;;;5095787;28;19912;-67
2021/01/03 07:17:45;;;;;;;;;;;27.10;38.50;;;;;;5091885;28;19960;-67
2021/01/03 07:20:11;;;;;;;;;;;27.10;38.50;;;;;;5077063;28;19909;-67
2021/01/03 07:22:45;;;;;;;;;;;27.10;38.50;;;;;;5075275;28;19958;-67
2021/01/03 07:25:24;;;;;;;;;;;27.20;38.60;;;;;;5085610;28;19915;-67
2021/01/03 07:27:53;;;;;;;;;;;27.20;38.50;;;;;;5083580;28;20267;-67
2021/01/03 07:30:29;;;;;;;;;;;27.10;38.40;;;;;;5087992;28;19980;-68
2021/01/03 07:33:02;;;;;;;;;;;27.20;38.50;;;;;;5066454;28;20313;-67
2021/01/03 07:35:32;;;;;;;;;;;27.10;38.40;;;;;;5092500;28;19958;-67
2021/01/03 07:38:20;;;;;;;;;;;27.10;38.40;;;;;;5076119;28;19966;-67
2021/01/03 07:40:50;;;;;;;;;;;27.20;38.40;;;;;;5081399;28;19912;-67
2021/01/03 07:43:16;;;;;;;;;;;27.20;38.40;;;;;;5095868;28;19916;-67
2021/01/03 07:45:42;;;;;;;;;;;27.10;38.40;;;;;;5090677;28;19913;-67
2021/01/03 07:48:27;;;;;;;;;;;27.20;38.50;;;;;;5075720;28;19943;-68
2021/01/03 07:50:52;;;;;;;;;;;27.20;38.40;;;;;;5082391;28;19913;-68
2021/01/03 07:53:18;;;;;;;;;;;27.20;38.40;;;;;;5095829;28;20293;-67
2021/01/03 07:55:43;;;;;;;;;;;27.20;38.40;;;;;;5068823;28;19920;-67
2021/01/03 07:58:13;;;;;;;;;;;27.20;38.40;;;;;;5070471;28;20006;-67
2021/01/03 08:00:39;;;;;;;;;;;27.20;38.40;;;;;;5058200;28;19968;-67
2021/01/03 08:03:06;;;;;;;;;;;27.10;38.30;;;;;;5070952;28;19919;-66
2021/01/03 08:05:32;;;;;;;;;;;27.20;38.40;;;;;;5075269;28;19958;-66
2021/01/03 08:08:01;;;;;;;;;;;27.10;38.30;;;;;;5075370;28;20091;-67
2021/01/03 08:10:27;;;;;;;;;;;27.10;38.40;;;;;;5078280;28;19912;-67
2021/01/03 08:12:56;;;;;;;;;;;27.10;38.40;;;;;;5095373;28;20282;-66
2021/01/03 08:15:28;;;;;;;;;;;27.20;38.40;;;;;;5091526;28;19920;-66
2021/01/03 08:18:04;;;;;;;;;;;27.10;38.30;;;;;;5090790;28;19922;-67
2021/01/03 08:20:30;;;;;;;;;;;27.10;38.30;;;;;;5070322;28;20378;-67
2021/01/03 08:23:07;;;;;;;;;;;27.10;38.30;;;;;;5055149;28;19916;-67
2021/01/03 08:25:32;;;;;;;;;;;27.10;38.30;;;;;;5066637;28;19913;-67
2021/01/03 08:28:00;;;;;;;;;;;27.10;38.30;;;;;;5074495;28;20378;-67
2021/01/03 08:30:25;;;;;;;;;;;27.20;38.90;;;;;;5085326;28;20320;-67
2021/01/03 08:32:51;;;;;;;;;;;27.20;38.30;;;;;;5086421;28;19935;-67
2021/01/03 08:35:27;;;;;;;;;;;27.10;38.20;;;;;;5074312;28;19991;-67
2021/01/03 08:37:53;;;;;;;;;;;27.10;38.20;;;;;;5094880;28;20393;-66
2021/01/03 08:40:30;;;;;;;;;;;27.10;38.20;;;;;;5093060;28;19916;-67
2021/01/03 08:42:58;;;;;;;;;;;27.10;38.20;;;;;;5074695;28;19908;-66
2021/01/03 08:45:27;;;;;;;;;;;27.10;38.30;;;;;;5077466;28;19970;-67
2021/01/03 08:47:52;;;;;;;;;;;27.10;38.20;;;;;;5094553;28;19916;-67
2021/01/03 08:50:18;;;;;;;;;;;27.20;38.20;;;;;;5086380;28;19958;-67
2021/01/03 08:52:43;;;;;;;;;;;27.10;38.10;;;;;;5074322;28;20007;-66
2021/01/03 08:55:09;;;;;;;;;;;27.10;38.10;;;;;;5081645;28;20015;-67
2021/01/03 08:57:34;;;;;;;;;;;27.20;38.20;;;;;;5064481;28;19978;-66
2021/01/03 09:00:00;;;;;;;;;;;27.10;38.10;;;;;;5087573;28;19912;-67
2021/01/03 09:02:26;;;;;;;;;;;27.20;38.20;;;;;;5091030;28;19912;-67
2021/01/03 09:04:56;;;;;;;;;;;27.20;38.10;;;;;;5094274;28;19961;-67
2021/01/03 09:07:21;;;;;;;;;;;27.20;38.10;;;;;;5094222;28;19916;-67
2021/01/03 09:09:47;;;;;;;;;;;27.10;38.00;;;;;;5093375;28;19953;-67
2021/01/03 09:12:12;;;;;;;;;;;27.10;38.10;;;;;;5074676;28;19935;-67
2021/01/03 09:14:47;;;;;;;;;;;27.20;38.10;;;;;;5073379;28;19915;-67
2021/01/03 09:17:14;;;;;;;;;;;27.20;38.10;;;;;;5091789;28;20006;-67
2021/01/03 09:19:46;;;;;;;;;;;27.10;38.10;;;;;;5079818;28;20001;-67
2021/01/03 09:22:11;;;;;;;;;;;27.10;38.10;;;;;;5089038;28;19912;-67
2021/01/03 09:24:42;;;;;;;;;;;27.10;38.10;;;;;;5091020;28;20453;-67
2021/01/03 09:27:08;;;;;;;;;;;27.10;38.00;;;;;;5085959;28;19991;-66
2021/01/03 09:29:34;;;;;;;;;;;27.10;38.00;;;;;;5074810;28;20054;-67
2021/01/03 09:32:03;;;;;;;;;;;27.10;38.10;;;;;;5073705;28;19920;-66
2021/01/03 09:34:34;;;;;;;;;;;27.10;38.10;;;;;;5090847;28;19919;-66
2021/01/03 09:37:21;;;;;;;;;;;27.10;38.10;;;;;;5074118;28;19916;-66
2021/01/03 09:40:05;;;;;;;;;;;27.10;38.10;;;;;;5073360;28;19915;-67
2021/01/03 09:42:31;;;;;;;;;;;27.10;38.10;;;;;;5053500;28;19917;-66
2021/01/03 09:45:05;;;;;;;;;;;27.10;38.10;;;;;;5053732;28;19935;-66
2021/01/03 09:47:37;;;;;;;;;;;27.10;38.10;;;;;;5069021;28;19975;-67
2021/01/03 09:50:11;;;;;;;;;;;27.10;38.00;;;;;;5053675;28;19940;-66
2021/01/03 09:52:41;;;;;;;;;;;27.10;38.00;;;;;;5090307;28;19912;-66
2021/01/03 09:55:08;;;;;;;;;;;27.10;38.10;;;;;;5085969;28;20001;-67
2021/01/03 09:57:49;;;;;;;;;;;27.10;38.00;;;;;;5088811;28;19915;-66
2021/01/03 10:00:16;;;;;;;;;;;27.10;38.60;;;;;;5092294;28;19923;-67
2021/01/03 10:02:42;;;;;;;;;;;27.10;38.00;;;;;;5089375;28;19913;-68
2021/01/03 10:05:23;;;;;;;;;;;27.10;37.90;;;;;;5073612;28;19908;-68
2021/01/03 10:08:15;;;;;;;;;;;27.10;38.00;;;;;;5093309;28;19926;-68
2021/01/03 10:10:50;;;;;;;;;;;27.00;38.10;;;;;;5087568;28;19916;-68
2021/01/03 10:13:16;;;;;;;;;;;27.00;38.00;;;;;;5093473;28;19965;-69
2021/01/03 10:15:41;;;;;;;;;;;27.00;38.00;;;;;;5088018;28;19920;-69
2021/01/03 10:18:08;;;;;;;;;;;27.00;38.00;;;;;;5074128;28;20321;-68
2021/01/03 10:20:50;;;;;;;;;;;27.10;38.00;;;;;;5077159;28;19955;-68
2021/01/03 10:23:27;;;;;;;;;;;27.10;37.90;;;;;;5093403;28;19912;-68
2021/01/03 10:25:53;;;;;;;;;;;27.00;37.90;;;;;;5086991;28;19919;-68
2021/01/03 10:28:18;;;;;;;;;;;27.00;38.00;;;;;;5076162;28;19925;-68
2021/01/03 10:30:44;;;;;;;;;;;27.00;38.00;;;;;;5081498;28;19912;-68
2021/01/03 10:33:09;;;;;;;;;;;27.10;38.00;;;;;;5073137;28;20355;-68
2021/01/03 10:35:35;;;;;;;;;;;27.00;37.90;;;;;;5077115;28;19912;-68
2021/01/03 10:38:01;;;;;;;;;;;27.00;38.00;;;;;;5093272;28;20270;-68
2021/01/03 10:40:26;;;;;;;;;;;27.10;38.00;;;;;;5089334;28;19955;-68
2021/01/03 10:42:52;;;;;;;;;;;27.10;37.90;;;;;;5072934;28;19936;-68
2021/01/03 10:45:18;;;;;;;;;;;27.10;37.90;;;;;;5076119;28;20499;-68
2021/01/03 10:47:43;;;;;;;;;;;27.10;37.90;;;;;;5093022;28;19958;-68
2021/01/03 10:50:10;;;;;;;;;;;27.10;37.90;;;;;;5076201;28;19928;-67
2021/01/03 10:52:35;;;;;;;;;;;27.00;37.90;;;;;;5074260;28;20003;-67
2021/01/03 10:55:01;;;;;;;;;;;27.10;37.90;;;;;;5072447;28;19966;-67
2021/01/03 10:57:26;;;;;;;;;;;27.00;37.90;;;;;;5076338;28;19916;-67
2021/01/03 10:59:51;;;;;;;;;;;27.10;37.90;;;;;;5072986;28;20007;-67
2021/01/03 11:02:17;;;;;;;;;;;27.10;37.90;;;;;;5091726;28;19912;-67
2021/01/03 11:04:42;;;;;;;;;;;27.10;37.90;;;;;;5092634;28;19908;-67
2021/01/03 11:07:08;;;;;;;;;;;27.10;37.90;;;;;;5074832;28;20050;-67
2021/01/03 11:09:35;;;;;;;;;;;27.10;37.90;;;;;;5072696;28;20313;-68
2021/01/03 11:12:07;;;;;;;;;;;27.10;38.10;;;;;;5087799;28;20003;-68
2021/01/03 11:14:33;;;;;;;;;;;26.90;36.80;;;;;;5052307;28;20386;-64
2021/01/03 11:16:58;;;;;;;;;;;26.90;37.20;;;;;;5064735;28;19908;-62
2021/01/03 11:19:23;;;;;;;;;;;26.90;37.70;;;;;;5072642;28;19912;-59
2021/01/03 11:21:52;;;;;;;;;;;26.90;38.00;;;;;;5072592;28;20273;-59
2021/01/03 11:24:18;;;;;;;;;;;27.00;38.00;;;;;;5072611;28;19909;-57
2021/01/03 11:26:43;;;;;;;;;;;27.10;38.20;;;;;;5077080;28;20357;-60
2021/01/03 11:29:10;;;;;;;;;;;27.00;38.20;;;;;;5071912;28;19924;-61
2021/01/03 11:31:40;;;;;;;;;;;27.10;38.10;;;;;;5073381;28;19956;-57
2021/01/03 11:34:06;;;;;;;;;;;27.10;38.30;;;;;;5081046;28;19957;-59
2021/01/03 11:36:31;;;;;;;;;;;27.10;38.60;;;;;;5080238;28;19917;-60
2021/01/03 11:39:00;;;;;;;;;;;27.20;38.80;;;;;;5074727;28;20446;-61
2021/01/03 11:41:26;;;;;;;;;;;27.20;39.10;;;;;;5087152;28;19965;-61
2021/01/03 11:43:51;;;;;;;;;;;27.10;39.30;;;;;;5096132;28;19912;-61
2021/01/03 11:46:19;;;;;;;;;;;27.10;39.30;;;;;;5093374;28;20002;-59
2021/01/03 11:48:45;;;;;;;;;;;27.20;39.40;;;;;;5079961;28;20340;-66
2021/01/03 11:51:11;;;;;;;;;;;27.20;39.50;;;;;;5096031;28;20002;-61
2021/01/03 11:53:36;;;;;;;;;;;27.20;39.50;;;;;;5096007;28;19909;-65
2021/01/03 11:56:02;;;;;;;;;;;27.20;39.50;;;;;;5087527;28;20371;-57
2021/01/03 11:58:27;;;;;;;;;;;27.20;39.50;;;;;;5095899;28;19957;-62
2021/01/03 12:00:53;;;;;;;;;;;27.20;39.50;;;;;;5092289;28;20354;-54
2021/01/03 12:03:19;;;;;;;;;;;27.20;39.70;;;;;;5075244;28;19913;-55
2021/01/03 12:05:44;;;;;;;;;;;27.20;39.50;;;;;;5076300;28;19918;-54
2021/01/03 12:08:10;;;;;;;;;;;27.20;39.50;;;;;;5075047;28;19923;-56
2021/01/03 12:10:37;;;;;;;;;;;27.20;39.50;;;;;;5079457;28;19991;-55
2021/01/03 12:13:02;;;;;;;;;;;27.10;39.50;;;;;;5095629;28;19965;-55
2021/01/03 12:15:28;;;;;;;;;;;27.10;39.60;;;;;;5086686;28;20379;-55
2021/01/03 12:17:53;;;;;;;;;;;27.00;39.60;;;;;;5079654;28;20347;-55
2021/01/03 12:20:19;;;;;;;;;;;27.00;39.60;;;;;;5093538;28;19912;-55
2021/01/03 12:22:44;;;;;;;;;;;27.00;39.60;;;;;;5095445;28;19908;-54
2021/01/03 12:25:11;;;;;;;;;;;26.90;39.60;;;;;;5089747;28;19914;-54
2021/01/03 12:27:36;;;;;;;;;;;26.90;39.60;;;;;;5082019;28;19966;-54
2021/01/03 12:30:04;;;;;;;;;;;26.90;39.60;;;;;;5082478;28;20221;-54
2021/01/03 12:32:30;;;;;;;;;;;26.90;39.60;;;;;;5095206;28;19912;-55
2021/01/03 12:34:55;;;;;;;;;;;26.90;39.80;;;;;;5094660;28;19908;-54
2021/01/03 12:37:21;;;;;;;;;;;26.90;39.60;;;;;;5094379;28;19908;-54
2021/01/03 12:39:46;;;;;;;;;;;26.90;39.60;;;;;;5094772;28;20290;-55
2021/01/03 12:42:13;;;;;;;;;;;26.90;39.70;;;;;;5076438;28;19909;-52
2021/01/03 12:44:38;;;;;;;;;;;26.90;39.60;;;;;;5074683;28;19920;-54
2021/01/03 12:47:04;;;;;;;;;;;26.90;39.70;;;;;;5091096;28;19962;-54
2021/01/03 12:49:29;;;;;;;;;;;27.00;39.60;;;;;;5091169;28;19962;-54
2021/01/03 12:51:55;;;;;;;;;;;26.90;39.60;;;;;;5074519;28;20381;-51
2021/01/03 12:54:21;;;;;;;;;;;26.90;39.60;;;;;;5074426;28;19912;-53
2021/01/03 12:56:46;;;;;;;;;;;26.90;39.60;;;;;;5086258;28;19912;-54
2021/01/03 12:59:11;;;;;;;;;;;26.90;39.60;;;;;;5074692;28;19912;-52
2021/01/03 13:01:38;;;;;;;;;;;26.90;39.70;;;;;;5080401;28;20420;-54
2021/01/03 13:04:04;;;;;;;;;;;26.90;39.70;;;;;;5074096;28;19959;-54
2021/01/03 13:06:32;;;;;;;;;;;26.90;39.60;;;;;;5075358;28;19909;-54
2021/01/03 13:08:58;;;;;;;;;;;26.90;39.60;;;;;;5073857;28;19974;-54
2021/01/03 13:11:23;;;;;;;;;;;26.90;39.60;;;;;;5085066;28;19912;-55
2021/01/03 13:13:49;;;;;;;;;;;26.90;39.60;;;;;;5094170;28;19923;-53
2021/01/03 13:16:14;;;;;;;;;;;26.90;39.70;;;;;;5084255;28;19909;-54
2021/01/03 13:18:40;;;;;;;;;;;26.90;39.70;;;;;;5087268;28;20262;-51
2021/01/03 13:21:08;;;;;;;;;;;26.90;39.60;;;;;;5093961;28;19915;-53
2021/01/03 13:23:34;;;;;;;;;;;26.90;39.70;;;;;;5094130;28;19931;-53
2021/01/03 13:26:00;;;;;;;;;;;26.80;39.70;;;;;;5085912;28;20313;-54
2021/01/03 13:28:25;;;;;;;;;;;26.90;40.40;;;;;;5093343;28;19924;-52
2021/01/03 13:30:51;;;;;;;;;;;26.80;39.70;;;;;;5086813;28;20390;-55
2021/01/03 13:33:16;;;;;;;;;;;26.80;39.70;;;;;;5086502;28;19913;-54
2021/01/03 13:35:42;;;;;;;;;;;26.80;39.70;;;;;;5088388;28;20005;-54
2021/01/03 13:38:07;;;;;;;;;;;26.90;39.80;;;;;;5093146;28;19930;-55
2021/01/03 13:40:33;;;;;;;;;;;26.80;39.70;;;;;;5089395;28;19913;-52
2021/01/03 13:42:58;;;;;;;;;;;26.90;39.70;;;;;;5073871;28;19909;-53
2021/01/03 13:45:23;;;;;;;;;;;26.80;39.70;;;;;;5076178;28;20796;-54
2021/01/03 13:47:49;;;;;;;;;;;26.80;39.70;;;;;;5093357;28;19924;-54
2021/01/03 13:50:15;;;;;;;;;;;26.80;39.70;;;;;;5082309;28;19916;-54
2021/01/03 13:52:42;;;;;;;;;;;26.80;39.70;;;;;;5073172;28;19908;-54
2021/01/03 13:55:08;;;;;;;;;;;26.90;39.60;;;;;;5073488;28;19915;-53
2021/01/03 13:57:33;;;;;;;;;;;26.80;39.60;;;;;;5077692;28;19913;-53
2021/01/03 13:59:59;;;;;;;;;;;26.80;39.60;;;;;;5073191;28;20519;-54
2021/01/03 14:02:24;;;;;;;;;;;26.80;39.60;;;;;;5078416;28;19936;-54
2021/01/03 14:04:50;;;;;;;;;;;26.80;39.70;;;;;;5093281;28;19912;-56
2021/01/03 14:07:15;;;;;;;;;;;26.80;39.70;;;;;;5080213;28;20366;-58
2021/01/03 14:09:41;;;;;;;;;;;26.80;39.70;;;;;;5073204;28;19912;-58
2021/01/03 14:12:07;;;;;;;;;;;26.80;39.70;;;;;;5090219;28;19912;-58
2021/01/03 14:14:32;;;;;;;;;;;26.80;39.50;;;;;;5093171;28;19914;-58
2021/01/03 14:16:58;;;;;;;;;;;26.80;39.40;;;;;;5076869;28;20278;-58
2021/01/03 14:19:24;;;;;;;;;;;26.80;39.30;;;;;;5075620;28;19916;-59